sensor_id;sensor_type;location;lat;lon;timestamp;pressure;altitude;pressure_sealevel;temperature;humidity
10732;BME280;74907;42.812;23.216;2024-03-02T00:00:30;94930.41;;;8.09;91.78
10732;BME280;74907;42.812;23.216;2024-03-02T00:02:57;94929.22;;;8.01;91.92
10732;BME280;74907;42.812;23.216;2024-03-02T00:05:24;94928.97;;;7.91;93.33
10732;BME280;74907;42.812;23.216;2024-03-02T00:07:53;94928.44;;;7.86;93.41
10732;BME280;74907;42.812;23.216;2024-03-02T00:10:25;94920.94;;;7.81;93.21
10732;BME280;74907;42.812;23.216;2024-03-02T00:12:55;94916.59;;;7.82;93.99
10732;BME280;74907;42.812;23.216;2024-03-02T00:15:41;94925.66;;;7.75;93.20
10732;BME280;74907;42.812;23.216;2024-03-02T00:18:10;94931.66;;;7.89;94.33
10732;BME280;74907;42.812;23.216;2024-03-02T00:20:40;94933.41;;;7.89;93.37
10732;BME280;74907;42.812;23.216;2024-03-02T00:23:08;94935.38;;;7.85;93.87
10732;BME280;74907;42.812;23.216;2024-03-02T00:25:41;94931.22;;;7.83;94.07
10732;BME280;74907;42.812;23.216;2024-03-02T00:28:17;94936.09;;;7.87;93.79
10732;BME280;74907;42.812;23.216;2024-03-02T00:30:59;94932.88;;;7.84;93.60
10732;BME280;74907;42.812;23.216;2024-03-02T00:33:30;94922.41;;;7.85;93.70
10732;BME280;74907;42.812;23.216;2024-03-02T00:35:57;94924.06;;;7.86;93.68
10732;BME280;74907;42.812;23.216;2024-03-02T00:38:25;94924.47;;;7.80;93.44
10732;BME280;74907;42.812;23.216;2024-03-02T00:40:54;94927.06;;;7.80;94.17
10732;BME280;74907;42.812;23.216;2024-03-02T00:43:44;94925.28;;;7.81;94.04
10732;BME280;74907;42.812;23.216;2024-03-02T00:46:13;94913.16;;;7.81;93.84
10732;BME280;74907;42.812;23.216;2024-03-02T00:48:41;94919.09;;;7.83;93.77
10732;BME280;74907;42.812;23.216;2024-03-02T00:51:12;94918.91;;;7.72;94.24
10732;BME280;74907;42.812;23.216;2024-03-02T00:53:39;94916.00;;;7.77;93.74
10732;BME280;74907;42.812;23.216;2024-03-02T00:56:09;94916.00;;;7.77;93.80
10732;BME280;74907;42.812;23.216;2024-03-02T00:58:37;94909.06;;;7.77;94.93
10732;BME280;74907;42.812;23.216;2024-03-02T01:01:04;94908.63;;;7.71;94.26
10732;BME280;74907;42.812;23.216;2024-03-02T01:03:31;94914.34;;;7.76;95.32
10732;BME280;74907;42.812;23.216;2024-03-02T01:05:58;94911.84;;;7.74;94.73
10732;BME280;74907;42.812;23.216;2024-03-02T01:08:25;94909.47;;;7.71;94.25
10732;BME280;74907;42.812;23.216;2024-03-02T01:10:52;94908.53;;;7.72;94.62
10732;BME280;74907;42.812;23.216;2024-03-02T01:13:21;94900.03;;;7.70;95.03
10732;BME280;74907;42.812;23.216;2024-03-02T01:15:47;94887.72;;;7.74;95.12
10732;BME280;74907;42.812;23.216;2024-03-02T01:18:14;94893.44;;;7.79;95.16
10732;BME280;74907;42.812;23.216;2024-03-02T01:20:41;94897.78;;;7.78;95.56
10732;BME280;74907;42.812;23.216;2024-03-02T01:23:08;94898.72;;;7.77;95.07
10732;BME280;74907;42.812;23.216;2024-03-02T01:25:35;94880.75;;;7.74;95.59
10732;BME280;74907;42.812;23.216;2024-03-02T01:28:02;94883.25;;;7.76;96.38
10732;BME280;74907;42.812;23.216;2024-03-02T01:30:30;94873.00;;;7.74;95.48
10732;BME280;74907;42.812;23.216;2024-03-02T01:32:57;94875.38;;;7.77;95.66
10732;BME280;74907;42.812;23.216;2024-03-02T01:35:24;94876.22;;;7.78;95.88
10732;BME280;74907;42.812;23.216;2024-03-02T01:37:52;94871.22;;;7.75;95.43
10732;BME280;74907;42.812;23.216;2024-03-02T01:40:18;94866.59;;;7.80;95.74
10732;BME280;74907;42.812;23.216;2024-03-02T01:42:45;94868.44;;;7.78;94.96
10732;BME280;74907;42.812;23.216;2024-03-02T01:45:12;94862.16;;;7.82;94.84
10732;BME280;74907;42.812;23.216;2024-03-02T01:47:40;94870.03;;;7.80;95.33
10732;BME280;74907;42.812;23.216;2024-03-02T01:50:07;94857.34;;;7.76;95.89
10732;BME280;74907;42.812;23.216;2024-03-02T01:52:36;94864.66;;;7.83;95.42
10732;BME280;74907;42.812;23.216;2024-03-02T01:55:04;94859.69;;;7.80;94.85
10732;BME280;74907;42.812;23.216;2024-03-02T01:57:31;94853.56;;;7.81;95.74
10732;BME280;74907;42.812;23.216;2024-03-02T01:59:58;94846.78;;;7.79;94.50
10732;BME280;74907;42.812;23.216;2024-03-02T02:02:25;94852.06;;;7.77;95.44
10732;BME280;74907;42.812;23.216;2024-03-02T02:04:53;94855.03;;;7.71;94.93
10732;BME280;74907;42.812;23.216;2024-03-02T02:07:19;94860.88;;;7.75;95.15
10732;BME280;74907;42.812;23.216;2024-03-02T02:09:46;94857.34;;;7.76;95.59
10732;BME280;74907;42.812;23.216;2024-03-02T02:12:13;94862.34;;;7.79;95.13
10732;BME280;74907;42.812;23.216;2024-03-02T02:14:47;94850.41;;;7.76;94.95
10732;BME280;74907;42.812;23.216;2024-03-02T02:17:14;94860.13;;;7.87;95.07
10732;BME280;74907;42.812;23.216;2024-03-02T02:19:40;94862.22;;;7.95;94.39
10732;BME280;74907;42.812;23.216;2024-03-02T02:22:09;94857.47;;;8.01;94.47
10732;BME280;74907;42.812;23.216;2024-03-02T02:24:36;94861.13;;;8.11;94.08
10732;BME280;74907;42.812;23.216;2024-03-02T02:27:02;94855.13;;;8.11;93.25
10732;BME280;74907;42.812;23.216;2024-03-02T02:29:29;94863.72;;;8.11;92.37
10732;BME280;74907;42.812;23.216;2024-03-02T02:31:56;94858.09;;;8.05;92.54
10732;BME280;74907;42.812;23.216;2024-03-02T02:34:22;94855.09;;;7.98;93.84
10732;BME280;74907;42.812;23.216;2024-03-02T02:36:49;94853.66;;;8.07;93.68
10732;BME280;74907;42.812;23.216;2024-03-02T02:39:19;94857.19;;;8.06;93.04
10732;BME280;74907;42.812;23.216;2024-03-02T02:41:47;94858.53;;;8.11;92.80
10732;BME280;74907;42.812;23.216;2024-03-02T02:44:14;94858.88;;;8.19;93.13
10732;BME280;74907;42.812;23.216;2024-03-02T02:46:41;94862.31;;;8.20;92.85
10732;BME280;74907;42.812;23.216;2024-03-02T02:49:07;94864.28;;;8.29;91.99
10732;BME280;74907;42.812;23.216;2024-03-02T02:51:34;94863.44;;;8.43;91.59
10732;BME280;74907;42.812;23.216;2024-03-02T02:54:01;94860.84;;;8.43;92.27
10732;BME280;74907;42.812;23.216;2024-03-02T02:56:29;94863.34;;;8.44;91.81
10732;BME280;74907;42.812;23.216;2024-03-02T02:58:56;94874.16;;;8.51;91.63
10732;BME280;74907;42.812;23.216;2024-03-02T03:01:23;94870.53;;;8.53;92.09
10732;BME280;74907;42.812;23.216;2024-03-02T03:03:50;94875.72;;;8.53;92.02
10732;BME280;74907;42.812;23.216;2024-03-02T03:06:17;94875.19;;;8.48;91.67
10732;BME280;74907;42.812;23.216;2024-03-02T03:08:44;94870.31;;;8.44;91.85
10732;BME280;74907;42.812;23.216;2024-03-02T03:11:10;94867.59;;;8.45;92.15
10732;BME280;74907;42.812;23.216;2024-03-02T03:13:39;94869.56;;;8.42;91.75
10732;BME280;74907;42.812;23.216;2024-03-02T03:16:06;94875.69;;;8.41;92.15
10732;BME280;74907;42.812;23.216;2024-03-02T03:18:32;94869.03;;;8.37;92.51
10732;BME280;74907;42.812;23.216;2024-03-02T03:20:59;94870.41;;;8.42;92.35
10732;BME280;74907;42.812;23.216;2024-03-02T03:23:26;94869.47;;;8.43;92.54
10732;BME280;74907;42.812;23.216;2024-03-02T03:25:52;94865.13;;;8.44;92.42
10732;BME280;74907;42.812;23.216;2024-03-02T03:28:19;94870.59;;;8.39;92.91
10732;BME280;74907;42.812;23.216;2024-03-02T03:30:49;94878.47;;;8.38;92.89
10732;BME280;74907;42.812;23.216;2024-03-02T03:33:16;94878.28;;;8.41;92.50
10732;BME280;74907;42.812;23.216;2024-03-02T03:35:43;94877.25;;;8.43;92.81
10732;BME280;74907;42.812;23.216;2024-03-02T03:38:09;94871.72;;;8.35;93.71
10732;BME280;74907;42.812;23.216;2024-03-02T03:40:37;94869.25;;;8.34;93.75
10732;BME280;74907;42.812;23.216;2024-03-02T03:43:03;94873.00;;;8.28;94.92
10732;BME280;74907;42.812;23.216;2024-03-02T03:45:30;94872.66;;;8.20;94.93
10732;BME280;74907;42.812;23.216;2024-03-02T03:47:58;94871.22;;;8.16;94.57
10732;BME280;74907;42.812;23.216;2024-03-02T03:50:25;94868.63;;;8.16;95.47
10732;BME280;74907;42.812;23.216;2024-03-02T03:52:51;94864.78;;;8.21;96.19
10732;BME280;74907;42.812;23.216;2024-03-02T03:55:18;94863.22;;;8.19;95.67
10732;BME280;74907;42.812;23.216;2024-03-02T03:57:45;94867.78;;;8.15;96.02
10732;BME280;74907;42.812;23.216;2024-03-02T04:00:13;94865.63;;;8.22;95.89
10732;BME280;74907;42.812;23.216;2024-03-02T04:02:39;94868.22;;;8.22;94.77
10732;BME280;74907;42.812;23.216;2024-03-02T04:05:08;94871.53;;;8.24;95.26
10732;BME280;74907;42.812;23.216;2024-03-02T04:07:36;94865.22;;;8.28;95.66
10732;BME280;74907;42.812;23.216;2024-03-02T04:10:07;94869.69;;;8.26;96.48
10732;BME280;74907;42.812;23.216;2024-03-02T04:12:35;94866.06;;;8.29;96.22
10732;BME280;74907;42.812;23.216;2024-03-02T04:15:03;94866.78;;;8.31;97.27
10732;BME280;74907;42.812;23.216;2024-03-02T04:17:32;94868.44;;;8.32;97.40
10732;BME280;74907;42.812;23.216;2024-03-02T04:19:59;94869.78;;;8.24;97.43
10732;BME280;74907;42.812;23.216;2024-03-02T04:22:27;94864.69;;;8.23;97.81
10732;BME280;74907;42.812;23.216;2024-03-02T04:24:54;94863.03;;;8.22;97.54
10732;BME280;74907;42.812;23.216;2024-03-02T04:27:21;94874.03;;;8.26;97.60
10732;BME280;74907;42.812;23.216;2024-03-02T04:29:47;94871.53;;;8.24;98.00
10732;BME280;74907;42.812;23.216;2024-03-02T04:32:14;94871.75;;;8.21;98.24
10732;BME280;74907;42.812;23.216;2024-03-02T04:34:40;94876.00;;;8.22;98.34
10732;BME280;74907;42.812;23.216;2024-03-02T04:37:07;94879.53;;;8.21;97.67
10732;BME280;74907;42.812;23.216;2024-03-02T04:39:36;94880.44;;;8.20;98.08
10732;BME280;74907;42.812;23.216;2024-03-02T04:42:03;94875.75;;;8.12;98.57
10732;BME280;74907;42.812;23.216;2024-03-02T04:44:29;94875.38;;;8.18;98.90
10732;BME280;74907;42.812;23.216;2024-03-02T04:46:56;94883.97;;;8.19;98.65
10732;BME280;74907;42.812;23.216;2024-03-02T04:49:23;94870.56;;;8.12;99.15
10732;BME280;74907;42.812;23.216;2024-03-02T04:51:49;94876.69;;;8.11;98.85
10732;BME280;74907;42.812;23.216;2024-03-02T04:54:19;94878.44;;;8.11;99.40
10732;BME280;74907;42.812;23.216;2024-03-02T04:56:47;94882.06;;;8.08;99.36
10732;BME280;74907;42.812;23.216;2024-03-02T04:59:16;94878.34;;;8.12;99.73
10732;BME280;74907;42.812;23.216;2024-03-02T05:01:43;94876.69;;;8.11;100.00
10732;BME280;74907;42.812;23.216;2024-03-02T05:04:10;94881.78;;;8.13;99.40
10732;BME280;74907;42.812;23.216;2024-03-02T05:06:37;94882.81;;;8.10;100.00
10732;BME280;74907;42.812;23.216;2024-03-02T05:09:05;94885.50;;;8.09;99.18
10732;BME280;74907;42.812;23.216;2024-03-02T05:11:32;94888.91;;;8.09;99.44
10732;BME280;74907;42.812;23.216;2024-03-02T05:14:14;94892.34;;;8.10;100.00
10732;BME280;74907;42.812;23.216;2024-03-02T05:16:41;94889.13;;;8.06;99.35
10732;BME280;74907;42.812;23.216;2024-03-02T05:19:08;94895.78;;;8.10;99.83
10732;BME280;74907;42.812;23.216;2024-03-02T05:21:34;94903.34;;;8.13;100.00
10732;BME280;74907;42.812;23.216;2024-03-02T05:24:01;94896.22;;;8.17;100.00
10732;BME280;74907;42.812;23.216;2024-03-02T05:26:28;94906.69;;;8.15;100.00
10732;BME280;74907;42.812;23.216;2024-03-02T05:28:55;94911.75;;;8.17;100.00
10732;BME280;74907;42.812;23.216;2024-03-02T05:31:23;94907.50;;;8.16;100.00
10732;BME280;74907;42.812;23.216;2024-03-02T05:33:49;94916.50;;;8.10;100.00
10732;BME280;74907;42.812;23.216;2024-03-02T05:36:17;94919.09;;;8.10;100.00
10732;BME280;74907;42.812;23.216;2024-03-02T05:38:46;94916.81;;;8.06;100.00
10732;BME280;74907;42.812;23.216;2024-03-02T05:41:12;94915.88;;;8.07;100.00
10732;BME280;74907;42.812;23.216;2024-03-02T05:43:39;94924.03;;;8.01;100.00
10732;BME280;74907;42.812;23.216;2024-03-02T05:46:06;94925.69;;;8.02;100.00
10732;BME280;74907;42.812;23.216;2024-03-02T05:48:34;94927.47;;;8.01;100.00
10732;BME280;74907;42.812;23.216;2024-03-02T05:51:00;94929.66;;;8.07;100.00
10732;BME280;74907;42.812;23.216;2024-03-02T05:53:27;94928.19;;;8.03;100.00
10732;BME280;74907;42.812;23.216;2024-03-02T05:55:54;94923.22;;;8.00;100.00
10732;BME280;74907;42.812;23.216;2024-03-02T05:58:21;94929.31;;;7.99;100.00
10732;BME280;74907;42.812;23.216;2024-03-02T06:00:59;94922.03;;;7.91;100.00
10732;BME280;74907;42.812;23.216;2024-03-02T06:03:25;94922.47;;;7.98;100.00
10732;BME280;74907;42.812;23.216;2024-03-02T06:05:55;94923.50;;;7.96;100.00
10732;BME280;74907;42.812;23.216;2024-03-02T06:08:21;94928.44;;;7.86;100.00
10732;BME280;74907;42.812;23.216;2024-03-02T06:10:48;94925.66;;;7.89;100.00
10732;BME280;74907;42.812;23.216;2024-03-02T06:13:15;94925.84;;;7.86;100.00
10732;BME280;74907;42.812;23.216;2024-03-02T06:15:41;94922.22;;;7.88;100.00
10732;BME280;74907;42.812;23.216;2024-03-02T06:18:08;94927.06;;;7.80;100.00
10732;BME280;74907;42.812;23.216;2024-03-02T06:20:35;94933.72;;;7.84;100.00
10732;BME280;74907;42.812;23.216;2024-03-02T06:23:04;94934.44;;;7.86;100.00
10732;BME280;74907;42.812;23.216;2024-03-02T06:25:30;94928.44;;;7.86;100.00
10732;BME280;74907;42.812;23.216;2024-03-02T06:27:57;94927.31;;;7.76;100.00
10732;BME280;74907;42.812;23.216;2024-03-02T06:30:24;94932.88;;;7.84;100.00
10732;BME280;74907;42.812;23.216;2024-03-02T06:32:50;94933.06;;;7.81;100.00
10732;BME280;74907;42.812;23.216;2024-03-02T06:35:17;94930.47;;;7.81;100.00
10732;BME280;74907;42.812;23.216;2024-03-02T06:37:44;94935.19;;;7.88;100.00
10732;BME280;74907;42.812;23.216;2024-03-02T06:40:12;94931.38;;;7.94;100.00
10732;BME280;74907;42.812;23.216;2024-03-02T06:42:39;94934.25;;;7.89;100.00
10732;BME280;74907;42.812;23.216;2024-03-02T06:45:06;94936.66;;;7.93;100.00
10732;BME280;74907;42.812;23.216;2024-03-02T06:47:33;94941.00;;;7.92;100.00
10732;BME280;74907;42.812;23.216;2024-03-02T06:50:00;94941.19;;;7.89;100.00
10732;BME280;74907;42.812;23.216;2024-03-02T06:52:26;94943.31;;;7.97;100.00
10732;BME280;74907;42.812;23.216;2024-03-02T06:54:53;94943.41;;;7.95;100.00
10732;BME280;74907;42.812;23.216;2024-03-02T06:57:21;94950.44;;;7.93;100.00
10732;BME280;74907;42.812;23.216;2024-03-02T06:59:49;94947.81;;;8.07;100.00
10732;BME280;74907;42.812;23.216;2024-03-02T07:02:19;94951.78;;;8.13;100.00
10732;BME280;74907;42.812;23.216;2024-03-02T07:04:46;94948.91;;;8.17;100.00
10732;BME280;74907;42.812;23.216;2024-03-02T07:07:12;94961.50;;;8.09;100.00
10732;BME280;74907;42.812;23.216;2024-03-02T07:09:39;94959.72;;;8.24;100.00
10732;BME280;74907;42.812;23.216;2024-03-02T07:12:05;94958.78;;;8.25;100.00
10732;BME280;74907;42.812;23.216;2024-03-02T07:14:33;94963.03;;;8.40;100.00
10732;BME280;74907;42.812;23.216;2024-03-02T07:17:17;94960.56;;;8.39;100.00
10732;BME280;74907;42.812;23.216;2024-03-02T07:19:44;94955.78;;;8.31;100.00
10732;BME280;74907;42.812;23.216;2024-03-02T07:22:11;94960.53;;;8.24;100.00
10732;BME280;74907;42.812;23.216;2024-03-02T07:24:40;94964.34;;;8.19;100.00
10732;BME280;74907;42.812;23.216;2024-03-02T07:27:09;94966.31;;;8.15;100.00
10732;BME280;74907;42.812;23.216;2024-03-02T07:29:37;94968.47;;;8.09;100.00
10732;BME280;74907;42.812;23.216;2024-03-02T07:32:04;94966.50;;;8.12;100.00
10732;BME280;74907;42.812;23.216;2024-03-02T07:34:31;94964.50;;;8.03;100.00
10732;BME280;74907;42.812;23.216;2024-03-02T07:36:58;94967.09;;;8.03;100.00
10732;BME280;74907;42.812;23.216;2024-03-02T07:39:25;94968.00;;;8.02;100.00
10732;BME280;74907;42.812;23.216;2024-03-02T07:41:51;94967.28;;;8.00;100.00
10732;BME280;74907;42.812;23.216;2024-03-02T07:44:18;94971.72;;;7.98;100.00
10732;BME280;74907;42.812;23.216;2024-03-02T07:46:48;94963.22;;;7.96;100.00
10732;BME280;74907;42.812;23.216;2024-03-02T07:49:15;94968.94;;;8.01;100.00
10732;BME280;74907;42.812;23.216;2024-03-02T07:51:41;94964.78;;;7.99;100.00
10732;BME280;74907;42.812;23.216;2024-03-02T07:54:08;94966.06;;;8.06;100.00
10732;BME280;74907;42.812;23.216;2024-03-02T07:56:35;94967.34;;;8.13;100.00
10732;BME280;74907;42.812;23.216;2024-03-02T07:59:03;94966.09;;;8.33;100.00
10732;BME280;74907;42.812;23.216;2024-03-02T08:01:30;94966.00;;;8.20;99.98
10732;BME280;74907;42.812;23.216;2024-03-02T08:03:59;94965.09;;;8.21;100.00
10732;BME280;74907;42.812;23.216;2024-03-02T08:06:26;94970.41;;;8.05;99.73
10732;BME280;74907;42.812;23.216;2024-03-02T08:08:53;94969.47;;;8.06;99.69
10732;BME280;74907;42.812;23.216;2024-03-02T08:11:20;94973.63;;;8.09;100.00
10732;BME280;74907;42.812;23.216;2024-03-02T08:13:47;94979.06;;;8.18;99.75
10732;BME280;74907;42.812;23.216;2024-03-02T08:16:14;94975.94;;;8.13;100.00
10732;BME280;74907;42.812;23.216;2024-03-02T08:18:43;94979.47;;;8.12;100.00
10732;BME280;74907;42.812;23.216;2024-03-02T08:21:12;94985.13;;;8.05;99.72
10732;BME280;74907;42.812;23.216;2024-03-02T08:23:39;94980.50;;;8.10;100.00
10732;BME280;74907;42.812;23.216;2024-03-02T08:26:07;94978.16;;;8.19;100.00
10732;BME280;74907;42.812;23.216;2024-03-02T08:28:34;94981.31;;;8.10;100.00
10732;BME280;74907;42.812;23.216;2024-03-02T08:31:02;94982.78;;;8.14;100.00
10732;BME280;74907;42.812;23.216;2024-03-02T08:33:29;94982.16;;;8.11;99.67
10732;BME280;74907;42.812;23.216;2024-03-02T08:35:56;94979.38;;;8.14;99.39
10732;BME280;74907;42.812;23.216;2024-03-02T08:38:24;94978.59;;;8.26;99.47
10732;BME280;74907;42.812;23.216;2024-03-02T08:40:51;94970.94;;;8.39;100.00
10732;BME280;74907;42.812;23.216;2024-03-02T08:43:19;94975.47;;;8.35;99.95
10732;BME280;74907;42.812;23.216;2024-03-02T08:45:46;94975.63;;;8.46;99.56
10732;BME280;74907;42.812;23.216;2024-03-02T08:48:12;94974.25;;;8.41;97.92
10732;BME280;74907;42.812;23.216;2024-03-02T08:50:39;94985.16;;;8.46;98.37
10732;BME280;74907;42.812;23.216;2024-03-02T08:53:06;94982.50;;;8.60;97.87
10732;BME280;74907;42.812;23.216;2024-03-02T08:55:34;94980.25;;;8.68;97.71
10732;BME280;74907;42.812;23.216;2024-03-02T08:58:01;94989.50;;;8.72;96.88
10732;BME280;74907;42.812;23.216;2024-03-02T09:00:27;94984.13;;;8.75;95.84
10732;BME280;74907;42.812;23.216;2024-03-02T09:02:54;94985.69;;;8.78;95.65
10732;BME280;74907;42.812;23.216;2024-03-02T09:05:21;94981.69;;;8.87;95.96
10732;BME280;74907;42.812;23.216;2024-03-02T09:07:48;94988.47;;;9.02;95.69
10732;BME280;74907;42.812;23.216;2024-03-02T09:10:14;94991.56;;;8.94;94.92
10732;BME280;74907;42.812;23.216;2024-03-02T09:12:44;94991.06;;;9.14;95.55
10732;BME280;74907;42.812;23.216;2024-03-02T09:15:11;94995.22;;;9.17;95.25
10732;BME280;74907;42.812;23.216;2024-03-02T09:17:38;94992.31;;;9.22;94.80
10732;BME280;74907;42.812;23.216;2024-03-02T09:20:06;94996.22;;;9.41;93.67
10732;BME280;74907;42.812;23.216;2024-03-02T09:22:33;95002.03;;;9.45;93.35
10732;BME280;74907;42.812;23.216;2024-03-02T09:24:59;95001.81;;;9.48;93.46
10732;BME280;74907;42.812;23.216;2024-03-02T09:27:26;95003.78;;;9.57;92.20
10732;BME280;74907;42.812;23.216;2024-03-02T09:29:54;95006.19;;;9.60;91.68
10732;BME280;74907;42.812;23.216;2024-03-02T09:32:21;95006.81;;;9.64;91.06
10732;BME280;74907;42.812;23.216;2024-03-02T09:34:48;95010.13;;;9.53;92.03
10732;BME280;74907;42.812;23.216;2024-03-02T09:37:15;95009.63;;;9.48;91.65
10732;BME280;74907;42.812;23.216;2024-03-02T09:39:43;95014.28;;;9.56;91.27
10732;BME280;74907;42.812;23.216;2024-03-02T09:42:11;95007.13;;;9.59;90.56
10732;BME280;74907;42.812;23.216;2024-03-02T09:44:39;95016.38;;;9.63;90.99
10732;BME280;74907;42.812;23.216;2024-03-02T09:47:08;95006.28;;;9.71;91.39
10732;BME280;74907;42.812;23.216;2024-03-02T09:49:35;95013.88;;;9.74;90.15
10732;BME280;74907;42.812;23.216;2024-03-02T09:52:03;95013.88;;;9.74;89.72
10732;BME280;74907;42.812;23.216;2024-03-02T09:54:31;95016.47;;;9.74;90.05
10732;BME280;74907;42.812;23.216;2024-03-02T09:56:58;95010.75;;;9.69;90.41
10732;BME280;74907;42.812;23.216;2024-03-02T09:59:26;95020.44;;;9.67;90.23
10732;BME280;74907;42.812;23.216;2024-03-02T10:01:58;95012.00;;;9.64;90.45
10732;BME280;74907;42.812;23.216;2024-03-02T10:04:28;95014.50;;;9.53;90.48
10732;BME280;74907;42.812;23.216;2024-03-02T10:07:10;95006.09;;;9.49;90.76
10732;BME280;74907;42.812;23.216;2024-03-02T10:09:37;95010.03;;;9.67;91.02
10732;BME280;74907;42.812;23.216;2024-03-02T10:12:05;95018.34;;;9.72;91.13
10732;BME280;74907;42.812;23.216;2024-03-02T10:14:33;95004.41;;;9.73;90.38
10732;BME280;74907;42.812;23.216;2024-03-02T10:17:03;95007.63;;;9.77;90.32
10732;BME280;74907;42.812;23.216;2024-03-02T10:19:32;95014.41;;;9.67;90.57
10732;BME280;74907;42.812;23.216;2024-03-02T10:22:00;95005.16;;;9.63;90.96
10732;BME280;74907;42.812;23.216;2024-03-02T10:24:35;95006.59;;;9.67;91.35
10732;BME280;74907;42.812;23.216;2024-03-02T10:27:06;95002.63;;;9.74;91.56
10732;BME280;74907;42.812;23.216;2024-03-02T10:29:37;95003.66;;;9.84;91.37
10732;BME280;74907;42.812;23.216;2024-03-02T10:32:04;95004.63;;;9.70;92.03
10732;BME280;74907;42.812;23.216;2024-03-02T10:34:33;94998.69;;;9.68;92.29
10732;BME280;74907;42.812;23.216;2024-03-02T10:37:00;95002.00;;;9.83;91.69
10732;BME280;74907;42.812;23.216;2024-03-02T10:39:27;94997.84;;;9.80;91.75
10732;BME280;74907;42.812;23.216;2024-03-02T10:41:55;94999.00;;;9.89;92.47
10732;BME280;74907;42.812;23.216;2024-03-02T10:44:23;94996.81;;;9.83;91.70
10732;BME280;74907;42.812;23.216;2024-03-02T10:46:51;94991.09;;;10.03;92.30
10732;BME280;74907;42.812;23.216;2024-03-02T10:49:20;94987.94;;;10.11;92.09
10732;BME280;74907;42.812;23.216;2024-03-02T10:51:50;94990.44;;;10.12;91.11
10732;BME280;74907;42.812;23.216;2024-03-02T10:54:17;94986.38;;;10.21;91.26
10732;BME280;74907;42.812;23.216;2024-03-02T10:56:51;94988.97;;;10.21;90.41
10732;BME280;74907;42.812;23.216;2024-03-02T10:59:26;94984.19;;;10.28;90.50
10732;BME280;74907;42.812;23.216;2024-03-02T11:01:56;94982.28;;;10.42;90.04
10732;BME280;74907;42.812;23.216;2024-03-02T11:04:25;94979.78;;;10.41;89.16
10732;BME280;74907;42.812;23.216;2024-03-02T11:06:58;94982.00;;;10.22;88.58
10732;BME280;74907;42.812;23.216;2024-03-02T11:09:28;94989.81;;;10.22;89.16
10732;BME280;74907;42.812;23.216;2024-03-02T11:12:00;94978.75;;;10.31;89.77
10732;BME280;74907;42.812;23.216;2024-03-02T11:14:30;94968.44;;;10.42;89.50
10732;BME280;74907;42.812;23.216;2024-03-02T11:16:58;94966.72;;;10.54;87.20
10732;BME280;74907;42.812;23.216;2024-03-02T11:19:25;94962.00;;;10.59;87.86
10732;BME280;74907;42.812;23.216;2024-03-02T11:21:54;94965.72;;;10.67;87.09
10732;BME280;74907;42.812;23.216;2024-03-02T11:24:47;94968.59;;;10.52;87.07
10732;BME280;74907;42.812;23.216;2024-03-02T11:27:14;94958.25;;;10.63;87.55
10732;BME280;74907;42.812;23.216;2024-03-02T11:29:45;94965.88;;;10.77;87.18
10732;BME280;74907;42.812;23.216;2024-03-02T11:32:21;94960.34;;;10.58;86.72
10732;BME280;74907;42.812;23.216;2024-03-02T11:34:50;94957.53;;;10.61;85.52
10732;BME280;74907;42.812;23.216;2024-03-02T11:37:19;94958.84;;;10.66;85.67
10732;BME280;74907;42.812;23.216;2024-03-02T11:39:48;94962.84;;;10.59;85.68
10732;BME280;74907;42.812;23.216;2024-03-02T11:42:15;94963.84;;;10.69;85.56
10732;BME280;74907;42.812;23.216;2024-03-02T11:44:44;94964.34;;;10.51;85.89
10732;BME280;74907;42.812;23.216;2024-03-02T11:47:12;94960.91;;;10.50;86.48
10732;BME280;74907;42.812;23.216;2024-03-02T11:49:44;94972.47;;;10.46;87.09
10732;BME280;74907;42.812;23.216;2024-03-02T11:52:12;94962.91;;;10.47;87.14
10732;BME280;74907;42.812;23.216;2024-03-02T11:54:42;94956.25;;;10.66;86.41
10732;BME280;74907;42.812;23.216;2024-03-02T11:57:13;94958.06;;;10.77;85.84
10732;BME280;74907;42.812;23.216;2024-03-02T11:59:40;94958.69;;;10.92;84.42
10732;BME280;74907;42.812;23.216;2024-03-02T12:02:14;94959.59;;;11.03;84.43
10732;BME280;74907;42.812;23.216;2024-03-02T12:04:42;94957.78;;;10.69;83.50
10732;BME280;74907;42.812;23.216;2024-03-02T12:07:08;94952.06;;;10.88;83.78
10732;BME280;74907;42.812;23.216;2024-03-02T12:09:35;94955.78;;;10.96;83.67
10732;BME280;74907;42.812;23.216;2024-03-02T12:12:05;94954.13;;;10.95;83.58
10732;BME280;74907;42.812;23.216;2024-03-02T12:14:33;94955.56;;;10.75;84.45
10732;BME280;74907;42.812;23.216;2024-03-02T12:17:00;94952.25;;;10.73;85.08
10732;BME280;74907;42.812;23.216;2024-03-02T12:19:27;94953.94;;;10.86;83.51
10732;BME280;74907;42.812;23.216;2024-03-02T12:21:55;94954.91;;;10.85;84.06
10732;BME280;74907;42.812;23.216;2024-03-02T12:24:23;94950.28;;;10.88;84.78
10732;BME280;74907;42.812;23.216;2024-03-02T12:26:50;94958.84;;;10.66;84.87
10732;BME280;74907;42.812;23.216;2024-03-02T12:29:19;94954.50;;;10.78;85.07
10732;BME280;74907;42.812;23.216;2024-03-02T12:31:48;94956.06;;;10.81;84.66
10732;BME280;74907;42.812;23.216;2024-03-02T12:34:16;94953.78;;;10.76;85.65
10732;BME280;74907;42.812;23.216;2024-03-02T12:36:43;94954.78;;;10.86;85.17
10732;BME280;74907;42.812;23.216;2024-03-02T12:39:13;94956.19;;;10.79;85.36
10732;BME280;74907;42.812;23.216;2024-03-02T12:41:41;94955.13;;;10.82;85.42
10732;BME280;74907;42.812;23.216;2024-03-02T12:44:08;94952.97;;;10.75;86.27
10732;BME280;74907;42.812;23.216;2024-03-02T12:46:36;94955.19;;;10.93;85.89
10732;BME280;74907;42.812;23.216;2024-03-02T12:49:08;94955.94;;;10.82;84.66
10732;BME280;74907;42.812;23.216;2024-03-02T12:51:35;94965.38;;;10.96;84.45
10732;BME280;74907;42.812;23.216;2024-03-02T12:54:03;94959.22;;;10.97;83.92
10732;BME280;74907;42.812;23.216;2024-03-02T12:56:30;94957.22;;;11.00;83.94
10732;BME280;74907;42.812;23.216;2024-03-02T12:58:58;94967.47;;;10.91;83.47